createdAt,value
2019-01-19T00:02:40.826Z,22.03
2019-01-19T00:05:19.672Z,24.63
2019-01-19T00:07:57.736Z,24.70
2019-01-19T00:10:51.064Z,26.60
2019-01-19T00:13:23.554Z,22.43
2019-01-19T00:16:16.844Z,30.03
2019-01-19T00:19:13.865Z,26.63
2019-01-19T00:21:52.335Z,22.73
2019-01-19T00:24:24.766Z,24.70
2019-01-19T00:26:59.931Z,30.97
2019-01-19T00:29:35.318Z,27.07
2019-01-19T00:32:08.323Z,24.03
2019-01-19T00:35:05.890Z,30.80
2019-01-19T00:37:38.420Z,26.90
2019-01-19T00:40:36.294Z,26.67
2019-01-19T00:43:07.962Z,30.33
2019-01-19T00:45:46.462Z,26.53
2019-01-19T00:48:27.835Z,26.27
2019-01-19T00:51:08.859Z,23.50
2019-01-19T00:53:51.401Z,24.77
2019-01-19T00:56:29.805Z,23.07
2019-01-19T00:59:02.742Z,25.80
2019-01-19T01:02:08.307Z,28.57
2019-01-19T01:04:44.303Z,24.43
2019-01-19T01:07:29.461Z,23.90
2019-01-19T01:10:04.583Z,25.00
2019-01-19T01:13:07.058Z,28.33
2019-01-19T01:15:54.436Z,19.63
2019-01-19T01:18:38.899Z,28.73
2019-01-19T01:21:23.054Z,23.47
2019-01-19T01:23:55.465Z,28.57
2019-01-19T01:26:39.929Z,27.50
2019-01-19T01:29:43.971Z,26.83
2019-01-19T01:32:22.259Z,28.97
2019-01-19T01:35:18.890Z,27.23
2019-01-19T01:37:53.871Z,26.13
2019-01-19T01:40:29.119Z,32.87
2019-01-19T01:43:18.472Z,30.43
2019-01-19T01:45:59.851Z,27.87
2019-01-19T01:48:55.822Z,28.90
2019-01-19T01:51:28.305Z,28.27
2019-01-19T01:54:18.611Z,30.13
2019-01-19T01:56:48.356Z,25.00
2019-01-19T01:59:23.746Z,25.70
2019-01-19T02:02:14.412Z,26.37
2019-01-19T02:05:13.689Z,22.50
2019-01-19T02:07:49.227Z,27.07
2019-01-19T02:10:51.881Z,23.83
2019-01-19T02:13:29.929Z,23.53
2019-01-19T02:16:04.514Z,23.23
2019-01-19T02:21:50.665Z,24.97
2019-01-19T02:24:38.065Z,27.80
2019-01-19T02:27:29.863Z,22.53
2019-01-19T02:30:20.239Z,22.80
2019-01-19T02:32:52.770Z,27.57
2019-01-19T02:35:25.269Z,30.53
2019-01-19T02:38:00.633Z,27.57
2019-01-19T02:40:35.929Z,27.30
2019-01-19T02:43:17.393Z,25.13
2019-01-19T02:45:52.575Z,25.63
2019-01-19T02:48:49.220Z,26.93
2019-01-19T02:51:24.241Z,32.43
2019-01-19T02:54:10.865Z,26.33
2019-01-19T02:56:56.456Z,34.00
2019-01-19T02:59:38.056Z,27.53
2019-01-19T03:02:20.325Z,26.83
2019-01-19T03:04:55.707Z,22.77
2019-01-19T03:07:31.346Z,26.60
2019-01-19T03:10:27.917Z,26.47
2019-01-19T03:13:06.525Z,25.67
2019-01-19T03:15:47.561Z,35.57
2019-01-19T03:18:20.594Z,29.17
2019-01-19T03:20:53.128Z,28.50
2019-01-19T03:23:31.180Z,32.23
2019-01-19T03:26:06.923Z,27.57
2019-01-19T03:28:41.986Z,30.70
2019-01-19T03:31:20.005Z,28.50
2019-01-19T03:33:55.038Z,28.87
2019-01-19T03:36:30.813Z,24.43
2019-01-19T03:39:19.785Z,32.23
2019-01-19T03:41:58.761Z,33.67
2019-01-19T03:44:31.171Z,39.40
2019-01-19T03:47:26.776Z,34.97
2019-01-19T03:50:25.645Z,33.23
2019-01-19T03:53:17.568Z,42.40
2019-01-19T03:56:06.892Z,31.67
2019-01-19T03:58:48.281Z,34.23
2019-01-19T04:01:30.078Z,33.70
2019-01-19T04:04:11.338Z,36.33
2019-01-19T04:06:55.833Z,31.20
2019-01-19T04:09:52.105Z,25.60
2019-01-19T04:12:36.400Z,33.90
2019-01-19T04:15:12.032Z,36.40
2019-01-19T04:18:02.424Z,31.40
2019-01-19T04:21:18.490Z,29.87
2019-01-19T04:23:50.982Z,32.43
2019-01-19T04:26:23.100Z,33.13
2019-01-19T04:28:52.809Z,32.63
2019-01-19T04:31:22.404Z,28.83
2019-01-19T04:33:52.291Z,25.70
2019-01-19T04:36:22.273Z,30.63
2019-01-19T04:38:52.588Z,34.70
2019-01-19T04:41:22.020Z,35.07
2019-01-19T04:43:52.486Z,33.83
2019-01-19T04:46:21.967Z,30.77
2019-01-19T04:48:51.509Z,30.70
2019-01-19T04:51:20.933Z,33.77
2019-01-19T04:53:51.830Z,35.53
2019-01-19T04:56:21.260Z,37.83
2019-01-19T04:58:50.674Z,33.90
2019-01-19T05:01:20.113Z,41.50
2019-01-19T05:03:50.004Z,27.30
2019-01-19T05:06:20.433Z,28.70
2019-01-19T05:08:50.140Z,33.03
2019-01-19T05:11:20.095Z,31.30
2019-01-19T05:13:49.460Z,31.07
2019-01-19T05:16:19.553Z,29.83
2019-01-19T05:18:49.000Z,29.37
2019-01-19T05:21:18.951Z,26.97
2019-01-19T05:23:48.484Z,33.20
2019-01-19T05:26:17.923Z,36.00
2019-01-19T05:28:47.266Z,35.00
2019-01-19T05:31:16.693Z,29.70
2019-01-19T05:33:47.346Z,33.03
2019-01-19T05:36:16.699Z,26.60
2019-01-19T05:38:46.376Z,27.10
2019-01-19T05:41:15.818Z,36.73
2019-01-19T05:43:45.249Z,25.77
2019-01-19T05:46:21.369Z,29.60
2019-01-19T05:48:45.728Z,32.87
2019-01-19T05:51:16.149Z,32.03
2019-01-19T05:53:45.574Z,26.90
2019-01-19T05:56:15.106Z,26.30
2019-01-19T05:58:44.880Z,36.50
2019-01-19T06:01:14.777Z,31.67
2019-01-19T06:03:44.726Z,26.53
2019-01-19T06:06:14.806Z,37.57
2019-01-19T06:08:44.656Z,36.53
2019-01-19T06:11:14.176Z,31.20
2019-01-19T06:13:43.611Z,29.43
2019-01-19T06:16:13.564Z,30.37
2019-01-19T06:18:43.600Z,32.50
2019-01-19T06:21:13.905Z,35.10
2019-01-19T06:23:43.689Z,27.73
2019-01-19T06:26:13.504Z,31.43
2019-01-19T06:28:43.519Z,29.20
2019-01-19T06:31:13.007Z,31.67
2019-01-19T06:33:42.646Z,32.75
2019-01-19T06:36:12.205Z,35.03
2019-01-19T06:38:41.719Z,34.83
2019-01-19T06:41:11.152Z,30.10
2019-01-19T06:43:40.504Z,32.97
2019-01-19T06:46:10.308Z,26.50
2019-01-19T06:48:39.696Z,32.23
2019-01-19T06:51:09.109Z,38.30
2019-01-19T06:53:38.795Z,28.10
2019-01-19T06:56:08.308Z,28.63
2019-01-19T06:58:37.732Z,23.27
2019-01-19T07:01:07.911Z,35.63
2019-01-19T07:03:37.935Z,27.37
2019-01-19T07:06:07.496Z,25.10
2019-01-19T07:08:37.011Z,25.15
2019-01-19T07:11:06.457Z,29.97
2019-01-19T07:13:35.882Z,29.03
2019-01-19T07:16:05.469Z,34.10
2019-01-19T07:18:35.058Z,30.77
2019-01-19T07:21:04.918Z,27.43
2019-01-19T07:23:34.779Z,32.33
2019-01-19T07:26:05.539Z,29.80
2019-01-19T07:28:35.019Z,30.97
2019-01-19T07:31:04.543Z,30.10
2019-01-19T07:33:33.967Z,27.07
2019-01-19T07:36:03.526Z,32.80
2019-01-19T07:38:32.979Z,38.00
2019-01-19T07:41:03.134Z,33.63
2019-01-19T07:43:33.010Z,34.27
2019-01-19T07:46:04.851Z,33.90
2019-01-19T07:48:34.353Z,36.00
2019-01-19T07:51:04.352Z,34.90
2019-01-19T07:53:33.869Z,33.63
2019-01-19T07:56:03.291Z,25.00
2019-01-19T07:58:32.734Z,32.63
2019-01-19T08:01:03.601Z,32.77
2019-01-19T08:03:33.226Z,31.17
2019-01-19T08:06:04.036Z,41.63
2019-01-19T08:08:34.784Z,35.47
2019-01-19T08:11:04.361Z,37.50
2019-01-19T08:13:33.876Z,34.07
2019-01-19T08:16:03.578Z,33.47
2019-01-19T08:18:32.992Z,35.73
2019-01-19T08:21:03.157Z,31.50
2019-01-19T08:23:33.186Z,33.00
2019-01-19T08:26:02.607Z,38.10
2019-01-19T08:28:32.050Z,34.63
2019-01-19T08:31:02.533Z,35.57
2019-01-19T08:33:32.164Z,34.53
2019-01-19T08:36:02.338Z,37.40
2019-01-19T08:38:31.866Z,31.20
2019-01-19T08:41:02.622Z,38.77
2019-01-19T08:43:33.791Z,38.83
2019-01-19T08:46:03.342Z,34.00
2019-01-19T08:48:33.439Z,31.83
2019-01-19T08:51:03.011Z,39.77
2019-01-19T08:53:32.879Z,30.87
2019-01-19T08:56:02.347Z,34.90
2019-01-19T08:58:31.892Z,30.33
2019-01-19T09:01:01.891Z,39.10
2019-01-19T09:03:31.233Z,31.80
2019-01-19T09:06:00.686Z,34.37
2019-01-19T09:08:30.181Z,31.20
2019-01-19T09:10:59.864Z,35.55
2019-01-19T09:13:29.740Z,41.00
2019-01-19T09:15:59.984Z,37.70
2019-01-19T09:18:29.616Z,34.17
2019-01-19T09:21:00.485Z,36.45
2019-01-19T09:23:31.721Z,38.30
2019-01-19T09:26:01.203Z,27.60
2019-01-19T09:28:30.657Z,39.27
2019-01-19T09:31:00.069Z,32.77
2019-01-19T09:33:29.566Z,33.77
2019-01-19T09:35:59.156Z,33.93
2019-01-19T09:38:28.643Z,34.47
2019-01-19T09:40:59.434Z,38.03
2019-01-19T09:43:28.937Z,33.75
2019-01-19T09:45:58.439Z,36.75
2019-01-19T09:48:28.363Z,28.90
2019-01-19T09:50:58.895Z,38.27
2019-01-19T09:53:28.456Z,34.70
2019-01-19T09:55:58.120Z,38.25
2019-01-19T09:58:27.500Z,41.27
2019-01-19T10:00:57.509Z,37.23
2019-01-19T10:03:26.970Z,37.63
2019-01-19T10:05:56.457Z,41.17
2019-01-19T10:08:25.879Z,39.03
2019-01-19T10:10:56.058Z,31.53
2019-01-19T10:13:26.068Z,35.77
2019-01-19T10:15:55.412Z,34.73
2019-01-19T10:18:25.786Z,37.88
2019-01-19T10:20:56.032Z,43.27
2019-01-19T10:23:25.544Z,40.60
2019-01-19T10:25:55.638Z,40.07
2019-01-19T10:28:25.455Z,52.17
2019-01-19T10:30:54.861Z,42.17
2019-01-19T10:33:24.210Z,40.23
2019-01-19T10:35:53.575Z,45.53
2019-01-19T10:38:22.929Z,42.00
2019-01-19T10:40:52.419Z,45.45
2019-01-19T10:43:21.777Z,47.80
2019-01-19T10:45:51.105Z,49.20
2019-01-19T10:48:20.454Z,53.07
2019-01-19T10:50:49.967Z,46.10
2019-01-19T10:53:19.397Z,44.80
2019-01-19T10:55:49.074Z,43.53
2019-01-19T10:58:18.985Z,44.37
2019-01-19T11:00:48.322Z,43.42
2019-01-19T11:03:17.747Z,46.00
2019-01-19T11:05:47.597Z,52.90
2019-01-19T11:08:17.702Z,41.65
2019-01-19T11:10:47.893Z,39.30
2019-01-19T11:13:17.330Z,41.83
2019-01-19T11:15:46.680Z,46.73
2019-01-19T11:18:17.299Z,54.85
2019-01-19T11:20:46.795Z,50.80
2019-01-19T11:23:16.196Z,47.58
2019-01-19T11:25:45.804Z,48.30
2019-01-19T11:28:15.766Z,55.23
2019-01-19T11:30:45.170Z,54.35
2019-01-19T11:33:15.047Z,53.50
2019-01-19T11:35:44.476Z,47.67
2019-01-19T11:38:20.100Z,56.80
2019-01-19T11:40:45.057Z,50.33
2019-01-19T11:43:15.009Z,62.25
2019-01-19T11:45:44.415Z,51.53
2019-01-19T11:48:13.825Z,50.85
2019-01-19T11:50:43.258Z,54.63
2019-01-19T11:53:13.835Z,55.00
2019-01-19T11:55:43.246Z,48.30
2019-01-19T11:58:13.378Z,50.52
2019-01-19T12:00:43.031Z,53.87
2019-01-19T12:03:12.359Z,54.90
2019-01-19T12:05:44.679Z,62.93
2019-01-19T12:08:19.466Z,49.83
2019-01-19T12:10:45.203Z,56.48
2019-01-19T12:13:14.955Z,65.00
2019-01-19T12:15:44.856Z,59.00
2019-01-19T12:18:14.662Z,53.48
2019-01-19T12:20:44.895Z,53.73
2019-01-19T12:23:14.290Z,51.67
2019-01-19T12:25:43.799Z,49.10
2019-01-19T12:28:13.370Z,50.57
2019-01-19T12:30:43.279Z,47.40
2019-01-19T12:33:12.944Z,53.42
2019-01-19T12:35:42.443Z,43.33
2019-01-19T12:38:11.902Z,56.00
2019-01-19T12:40:41.710Z,57.73
2019-01-19T12:43:14.482Z,58.90
2019-01-19T12:45:49.389Z,55.23
2019-01-19T12:48:18.873Z,53.93
2019-01-19T12:50:48.246Z,60.33
2019-01-19T12:53:17.840Z,54.57
2019-01-19T12:55:47.249Z,51.97
2019-01-19T12:58:16.746Z,49.37
2019-01-19T13:00:46.502Z,51.80
2019-01-19T13:03:17.015Z,50.50
2019-01-19T13:05:52.623Z,54.30
2019-01-19T13:08:34.197Z,45.83
2019-01-19T13:11:07.213Z,56.20
2019-01-19T13:13:39.182Z,54.67
2019-01-19T13:16:20.623Z,53.30
2019-01-19T13:18:55.603Z,52.33
2019-01-19T13:22:01.208Z,60.33
2019-01-19T13:24:50.294Z,46.30
2019-01-19T13:27:42.546Z,50.13
2019-01-19T13:30:47.140Z,56.80
2019-01-19T13:33:22.521Z,61.03
2019-01-19T13:35:55.115Z,70.97
2019-01-19T13:38:30.524Z,62.98
2019-01-19T13:41:36.324Z,50.27
2019-01-19T13:44:23.839Z,61.87
2019-01-19T13:47:13.031Z,51.83
2019-01-19T13:50:01.863Z,54.98
2019-01-19T13:52:38.078Z,61.37
2019-01-19T13:55:29.880Z,59.50
2019-01-19T13:58:02.299Z,62.20
2019-01-19T14:00:37.601Z,60.83
2019-01-19T14:03:43.611Z,50.30
2019-01-19T14:06:33.828Z,51.20
2019-01-19T14:09:32.894Z,55.63
2019-01-19T14:12:23.541Z,59.57
2019-01-19T14:15:02.001Z,60.12
2019-01-19T14:17:50.539Z,58.63
2019-01-19T14:20:35.129Z,60.50
2019-01-19T14:23:28.412Z,58.43
2019-01-19T14:26:16.067Z,56.57
2019-01-19T14:29:00.352Z,70.07
2019-01-19T14:32:05.909Z,67.10
2019-01-19T14:34:54.832Z,55.50
2019-01-19T14:37:36.383Z,53.77
2019-01-19T14:40:14.628Z,59.17
2019-01-19T14:43:04.977Z,58.63
2019-01-19T14:45:37.415Z,56.40
2019-01-19T14:48:12.263Z,59.97
2019-01-19T14:51:02.862Z,63.67
2019-01-19T14:53:44.321Z,57.07
2019-01-19T14:56:34.146Z,58.40
2019-01-19T14:59:25.091Z,54.87
2019-01-19T15:02:26.155Z,53.73
2019-01-19T15:04:58.558Z,63.43
2019-01-19T15:07:48.764Z,59.00
2019-01-19T15:10:40.393Z,58.63
2019-01-19T15:13:27.595Z,61.03
2019-01-19T15:16:11.824Z,59.87
2019-01-19T15:18:50.294Z,58.00
2019-01-19T15:21:31.039Z,68.97
2019-01-19T15:24:06.468Z,56.13
2019-01-19T15:26:56.270Z,57.27
2019-01-19T15:29:28.706Z,64.83
2019-01-19T15:32:20.546Z,56.77
2019-01-19T15:35:09.696Z,52.17
2019-01-19T15:37:51.441Z,55.63
2019-01-19T15:40:29.700Z,53.00
2019-01-19T15:43:19.415Z,54.50
2019-01-19T15:45:57.670Z,45.93
2019-01-19T15:48:58.720Z,52.97
2019-01-19T15:51:33.750Z,46.20
2019-01-19T15:54:31.623Z,58.28
2019-01-19T15:57:16.263Z,57.80
2019-01-19T16:00:09.431Z,58.80
2019-01-19T16:02:56.943Z,54.90
2019-01-19T16:05:38.174Z,63.77
2019-01-19T16:08:32.116Z,58.55
2019-01-19T16:11:14.056Z,66.80
2019-01-19T16:14:12.230Z,61.18
2019-01-19T16:16:56.595Z,61.77
2019-01-19T16:19:41.105Z,68.77
2019-01-19T16:22:34.434Z,67.70
2019-01-19T16:25:42.847Z,69.75
2019-01-19T16:28:26.978Z,77.65
2019-01-19T16:31:11.676Z,88.00
2019-01-19T16:33:44.078Z,74.10
2019-01-19T16:36:19.701Z,55.52
2019-01-19T16:38:57.743Z,60.83
2019-01-19T16:41:32.890Z,61.53
2019-01-19T16:44:10.852Z,54.50
2019-01-19T16:46:59.469Z,57.65
2019-01-19T16:49:35.351Z,61.35
2019-01-19T16:52:30.471Z,54.67
2019-01-19T16:55:23.684Z,69.30
2019-01-19T16:58:08.305Z,58.87
2019-01-19T17:01:00.540Z,64.90
2019-01-19T17:03:57.597Z,75.72
2019-01-19T17:06:49.518Z,53.07
2019-01-19T17:09:42.606Z,78.17
2019-01-19T17:12:23.707Z,56.13
2019-01-19T17:15:05.352Z,58.25
2019-01-19T17:17:54.178Z,61.43
2019-01-19T17:20:35.939Z,74.97
2019-01-19T17:23:17.125Z,66.95
2019-01-19T17:26:03.395Z,57.93
2019-01-19T17:28:47.444Z,55.15
2019-01-19T17:31:22.942Z,56.03
2019-01-19T17:34:11.157Z,82.13
2019-01-19T17:36:50.056Z,57.48
2019-01-19T17:39:43.228Z,51.98
2019-01-19T17:42:35.124Z,47.13
2019-01-19T17:45:22.975Z,53.68
2019-01-19T17:48:03.975Z,57.80
2019-01-19T17:50:48.591Z,53.30
2019-01-19T17:53:29.919Z,44.10
2019-01-19T17:56:27.866Z,53.33
2019-01-19T17:59:01.128Z,53.20
2019-01-19T18:01:36.515Z,43.10
2019-01-19T18:04:26.581Z,50.80
2019-01-19T18:07:01.733Z,50.37
2019-01-19T18:10:08.742Z,41.40
2019-01-19T18:12:45.148Z,47.70
2019-01-19T18:15:17.749Z,51.28
2019-01-19T18:18:04.680Z,48.63
2019-01-19T18:20:50.299Z,48.93
2019-01-19T18:23:50.131Z,53.78
2019-01-19T18:26:28.107Z,45.60
2019-01-19T18:29:15.908Z,51.30
2019-01-19T18:32:15.498Z,52.30
2019-01-19T18:35:11.923Z,48.17
2019-01-19T18:38:03.899Z,54.13
2019-01-19T18:41:04.751Z,51.70
2019-01-19T18:43:49.024Z,46.80
2019-01-19T18:46:24.336Z,45.07
2019-01-19T18:49:29.876Z,48.30
2019-01-19T18:52:17.020Z,59.17
2019-01-19T18:55:01.225Z,57.50
2019-01-19T18:57:59.390Z,58.23
2019-01-19T19:00:34.933Z,50.23
2019-01-19T19:03:19.474Z,54.63
2019-01-19T19:05:54.806Z,49.05
2019-01-19T19:08:35.607Z,56.90
2019-01-19T19:11:12.559Z,50.57
2019-01-19T19:13:54.209Z,61.43
2019-01-19T19:16:47.749Z,61.23
2019-01-19T19:19:31.619Z,49.73
2019-01-19T19:22:04.340Z,56.07
2019-01-19T19:24:39.500Z,58.45
2019-01-19T19:27:33.705Z,55.20
2019-01-19T19:30:24.244Z,69.70
2019-01-19T19:33:16.514Z,64.07
2019-01-19T19:36:00.928Z,53.80
2019-01-19T19:38:58.207Z,59.33
2019-01-19T19:41:42.631Z,51.17
2019-01-19T19:44:48.719Z,52.38
2019-01-19T19:47:38.008Z,62.10
2019-01-19T19:50:28.471Z,63.23
2019-01-19T19:52:57.883Z,64.60
2019-01-19T19:55:26.244Z,50.95
2019-01-19T19:57:55.612Z,54.47
2019-01-19T20:00:25.320Z,50.43
2019-01-19T20:02:54.766Z,56.05
2019-01-19T20:05:24.298Z,60.23
2019-01-19T20:07:53.709Z,48.23
2019-01-19T20:10:23.797Z,53.95
2019-01-19T20:12:53.566Z,48.53
2019-01-19T20:15:24.200Z,47.60
2019-01-19T20:17:54.261Z,52.40
2019-01-19T20:20:23.786Z,59.85
2019-01-19T20:22:53.203Z,65.05
2019-01-19T20:25:23.319Z,61.97
2019-01-19T20:27:52.759Z,57.70
2019-01-19T20:30:22.316Z,50.67
2019-01-19T20:32:51.963Z,60.00
2019-01-19T20:35:22.400Z,53.58
2019-01-19T20:37:51.911Z,66.00
2019-01-19T20:40:24.490Z,60.63
2019-01-19T20:42:53.474Z,52.20
2019-01-19T20:45:22.895Z,170.90
2019-01-19T20:47:52.404Z,56.50
2019-01-19T20:50:23.297Z,63.30
2019-01-19T20:52:53.148Z,61.30
2019-01-19T20:55:22.657Z,56.73
2019-01-19T20:57:52.113Z,54.67
2019-01-19T21:00:21.666Z,50.80
2019-01-19T21:02:51.094Z,59.20
2019-01-19T21:05:20.531Z,50.45
2019-01-19T21:07:49.959Z,56.80
2019-01-19T21:10:19.398Z,57.15
2019-01-19T21:12:48.991Z,53.83
2019-01-19T21:15:19.261Z,60.33
2019-01-19T21:17:55.605Z,50.80
2019-01-19T21:20:19.826Z,54.63
2019-01-19T21:22:49.401Z,48.10
2019-01-19T21:25:18.812Z,56.73
2019-01-19T21:27:48.825Z,55.92
2019-01-19T21:30:18.469Z,53.77
2019-01-19T21:32:48.000Z,55.35
2019-01-19T21:35:17.601Z,57.60
2019-01-19T21:37:47.158Z,55.35
2019-01-19T21:40:17.752Z,62.20
2019-01-19T21:42:47.273Z,50.55
2019-01-19T21:45:19.472Z,50.33
2019-01-19T21:47:48.928Z,46.85
2019-01-19T21:50:18.287Z,60.40
2019-01-19T21:52:47.725Z,57.80
2019-01-19T21:55:17.237Z,59.93
2019-01-19T21:57:46.596Z,59.48
2019-01-19T22:00:21.989Z,58.63
2019-01-19T22:02:51.580Z,61.70
2019-01-19T22:05:21.397Z,63.23
2019-01-19T22:07:50.988Z,63.00
2019-01-19T22:10:23.206Z,57.70
2019-01-19T22:12:52.768Z,60.90
2019-01-19T22:15:22.271Z,57.15
2019-01-19T22:17:51.784Z,65.87
2019-01-19T22:20:21.271Z,60.67
2019-01-19T22:22:51.338Z,68.07
2019-01-19T22:25:20.796Z,59.25
2019-01-19T22:27:50.449Z,66.37
2019-01-19T22:30:24.612Z,58.60
2019-01-19T22:32:55.875Z,62.08
2019-01-19T22:35:27.635Z,67.15
2019-01-19T22:37:57.550Z,68.42
2019-01-19T22:40:27.445Z,55.45
2019-01-19T22:42:57.562Z,61.08
2019-01-19T22:45:26.976Z,72.95
2019-01-19T22:47:56.493Z,70.95
2019-01-19T22:50:26.074Z,64.67
2019-01-19T22:52:55.726Z,74.27
2019-01-19T22:55:25.688Z,67.35
2019-01-19T22:57:55.447Z,71.02
2019-01-19T23:00:54.976Z,77.15
2019-01-19T23:03:24.501Z,62.98
2019-01-19T23:05:54.454Z,80.10
2019-01-19T23:08:24.116Z,76.12
2019-01-19T23:11:00.958Z,94.50
2019-01-19T23:13:25.532Z,85.65
2019-01-19T23:15:54.991Z,83.75
2019-01-19T23:18:24.499Z,93.47
2019-01-19T23:20:54.545Z,105.83
2019-01-19T23:23:24.464Z,99.17
2019-01-19T23:25:53.971Z,82.12
2019-01-19T23:28:25.434Z,88.58
2019-01-19T23:30:54.925Z,93.58
2019-01-19T23:33:24.649Z,94.67
2019-01-19T23:35:54.240Z,101.62
2019-01-19T23:38:23.761Z,93.23
2019-01-19T23:40:54.548Z,86.10
2019-01-19T23:43:24.065Z,105.30
2019-01-19T23:45:53.502Z,93.72
2019-01-19T23:48:22.953Z,103.62
2019-01-19T23:50:52.509Z,105.60
2019-01-19T23:53:21.966Z,98.47
2019-01-19T23:55:51.443Z,91.20
2019-01-19T23:58:21.049Z,103.60
